createdAt,value
2018-08-30T00:01:07.956Z,80.00
2018-08-30T00:03:36.401Z,80.30
2018-08-30T00:06:05.628Z,80.80
2018-08-30T00:08:34.417Z,80.80
2018-08-30T00:11:02.862Z,80.70
2018-08-30T00:13:31.324Z,80.90
2018-08-30T00:16:00.108Z,80.90
2018-08-30T00:18:29.243Z,80.90
2018-08-30T00:20:58.985Z,81.20
2018-08-30T00:23:27.784Z,81.50
2018-08-30T00:25:57.154Z,81.70
2018-08-30T00:28:26.301Z,81.90
2018-08-30T00:30:55.097Z,82.10
2018-08-30T00:33:23.524Z,82.20
2018-08-30T00:35:51.989Z,82.40
2018-08-30T00:38:20.790Z,82.70
2018-08-30T00:40:49.605Z,82.70
2018-08-30T00:43:18.420Z,83.40
2018-08-30T00:45:46.876Z,83.70
2018-08-30T00:48:15.706Z,83.70
2018-08-30T00:50:44.190Z,83.70
2018-08-30T00:53:13.410Z,84.00
2018-08-30T00:55:42.437Z,84.10
2018-08-30T00:58:11.237Z,84.40
2018-08-30T01:00:40.037Z,84.60
2018-08-30T01:03:08.489Z,85.00
2018-08-30T01:05:37.268Z,85.00
2018-08-30T01:08:07.116Z,85.10
2018-08-30T01:10:35.568Z,85.30
2018-08-30T01:13:04.402Z,85.60
2018-08-30T01:15:33.199Z,85.90
2018-08-30T01:18:02.025Z,86.20
2018-08-30T01:20:31.146Z,86.40
2018-08-30T01:22:59.652Z,86.20
2018-08-30T01:25:28.462Z,86.90
2018-08-30T01:27:57.608Z,87.20
2018-08-30T01:30:26.068Z,87.40
2018-08-30T01:32:54.523Z,87.50
2018-08-30T01:35:23.019Z,87.70
2018-08-30T01:37:51.800Z,88.00
2018-08-30T01:40:21.078Z,88.40
2018-08-30T01:42:50.214Z,88.40
2018-08-30T01:45:18.651Z,88.60
2018-08-30T01:47:47.356Z,88.70
2018-08-30T01:50:15.838Z,89.10
2018-08-30T01:52:44.313Z,89.10
2018-08-30T01:55:13.197Z,89.00
2018-08-30T01:57:41.636Z,89.40
2018-08-30T02:00:10.438Z,90.00
2018-08-30T02:02:38.936Z,90.10
2018-08-30T02:05:07.805Z,90.10
2018-08-30T02:07:36.971Z,90.10
2018-08-30T02:10:05.671Z,90.20
2018-08-30T02:12:34.141Z,90.50
2018-08-30T02:15:02.929Z,90.30
2018-08-30T02:17:31.764Z,90.60
2018-08-30T02:20:00.217Z,90.50
2018-08-30T02:22:29.011Z,90.60
2018-08-30T02:24:57.468Z,90.70
2018-08-30T02:27:26.305Z,90.90
2018-08-30T02:29:54.761Z,90.80
2018-08-30T02:32:23.584Z,91.10
2018-08-30T02:34:52.071Z,91.20
2018-08-30T02:37:20.834Z,91.40
2018-08-30T02:39:49.387Z,91.40
2018-08-30T02:42:18.528Z,91.70
2018-08-30T02:44:47.499Z,91.70
2018-08-30T02:47:16.594Z,91.60
2018-08-30T02:49:45.091Z,91.80
2018-08-30T02:52:13.576Z,91.90
2018-08-30T02:54:42.084Z,92.00
2018-08-30T02:57:10.546Z,92.20
2018-08-30T02:59:39.347Z,92.20
2018-08-30T03:02:08.176Z,92.10
2018-08-30T03:04:36.665Z,92.50
2018-08-30T03:07:05.798Z,92.60
2018-08-30T03:09:34.266Z,92.80
2018-08-30T03:12:03.417Z,92.80
2018-08-30T03:14:31.880Z,92.70
2018-08-30T03:17:00.697Z,93.00
2018-08-30T03:19:29.160Z,93.10
2018-08-30T03:21:57.644Z,93.10
2018-08-30T03:24:26.098Z,93.30
2018-08-30T03:26:54.591Z,93.40
2018-08-30T03:29:23.419Z,93.50
2018-08-30T03:31:52.175Z,93.30
2018-08-30T03:34:20.996Z,93.40
2018-08-30T03:36:49.462Z,93.70
2018-08-30T03:39:18.295Z,93.80
2018-08-30T03:41:47.437Z,93.90
2018-08-30T03:44:16.254Z,94.30
2018-08-30T03:46:45.067Z,94.00
2018-08-30T03:49:14.050Z,94.00
2018-08-30T03:51:43.278Z,94.20
2018-08-30T03:54:12.066Z,94.30
2018-08-30T03:56:40.548Z,94.40
2018-08-30T03:59:09.041Z,94.20
2018-08-30T04:01:37.797Z,94.40
2018-08-30T04:04:06.340Z,94.50
2018-08-30T04:06:35.289Z,94.60
2018-08-30T04:09:04.941Z,94.70
2018-08-30T04:11:33.406Z,94.50
2018-08-30T04:14:01.897Z,94.70
2018-08-30T04:16:30.372Z,94.80
2018-08-30T04:19:04.200Z,94.90
2018-08-30T04:21:32.741Z,94.90
2018-08-30T04:24:02.108Z,94.90
2018-08-30T04:26:31.378Z,94.90
2018-08-30T04:29:01.692Z,94.90
2018-08-30T04:31:30.664Z,94.90
2018-08-30T04:34:00.272Z,94.80
2018-08-30T04:36:29.909Z,94.80
2018-08-30T04:38:59.554Z,94.70
2018-08-30T04:41:28.709Z,94.90
2018-08-30T04:43:57.276Z,94.90
2018-08-30T04:46:26.775Z,94.90
2018-08-30T04:48:55.282Z,94.90
2018-08-30T04:51:23.852Z,94.90
2018-08-30T04:53:52.421Z,94.90
2018-08-30T04:56:21.642Z,94.90
2018-08-30T04:58:50.841Z,95.00
2018-08-30T05:01:19.337Z,95.00
2018-08-30T05:03:47.793Z,94.90
2018-08-30T05:06:16.606Z,95.10
2018-08-30T05:08:45.075Z,95.00
2018-08-30T05:11:14.265Z,94.90
2018-08-30T05:13:42.728Z,94.90
2018-08-30T05:16:11.236Z,94.90
2018-08-30T05:18:39.718Z,94.90
2018-08-30T05:21:15.229Z,94.90
2018-08-30T05:23:44.373Z,94.90
2018-08-30T05:26:13.194Z,94.80
2018-08-30T05:28:42.932Z,94.90
2018-08-30T05:31:11.397Z,95.00
2018-08-30T05:33:40.173Z,95.00
2018-08-30T05:36:09.856Z,95.10
2018-08-30T05:38:39.258Z,95.20
2018-08-30T05:41:08.113Z,95.20
2018-08-30T05:43:36.676Z,95.50
2018-08-30T05:46:05.461Z,95.80
2018-08-30T05:48:35.567Z,95.90
2018-08-30T05:51:04.725Z,96.00
2018-08-30T05:53:33.520Z,96.00
2018-08-30T05:56:02.697Z,96.10
2018-08-30T05:58:31.616Z,96.30
2018-08-30T06:01:00.561Z,96.70
2018-08-30T06:03:29.009Z,97.00
2018-08-30T06:05:57.855Z,97.30
2018-08-30T06:08:26.416Z,97.70
2018-08-30T06:10:55.601Z,98.10
2018-08-30T06:13:24.417Z,98.30
2018-08-30T06:15:53.213Z,99.00
2018-08-30T06:18:21.635Z,99.70
2018-08-30T06:20:51.082Z,99.80
2018-08-30T06:23:19.508Z,99.90
2018-08-30T06:25:48.292Z,99.90
2018-08-30T06:28:16.798Z,99.90
2018-08-30T06:30:45.249Z,99.90
2018-08-30T06:33:13.750Z,99.90
2018-08-30T06:35:42.808Z,99.90
2018-08-30T06:38:11.257Z,99.90
2018-08-30T06:40:39.737Z,99.90
2018-08-30T06:43:08.171Z,99.90
2018-08-30T06:45:36.963Z,99.90
2018-08-30T06:48:06.585Z,99.90
2018-08-30T06:50:35.056Z,99.90
2018-08-30T06:53:03.863Z,99.90
2018-08-30T06:55:32.641Z,99.90
2018-08-30T06:58:01.149Z,99.90
2018-08-30T07:00:29.704Z,99.90
2018-08-30T07:02:58.231Z,99.90
2018-08-30T07:06:51.262Z,99.90
2018-08-30T07:09:20.045Z,99.90
2018-08-30T07:11:48.828Z,99.90
2018-08-30T07:14:17.636Z,99.90
2018-08-30T07:16:46.078Z,99.90
2018-08-30T07:19:15.505Z,99.90
2018-08-30T07:21:43.977Z,99.90
2018-08-30T07:24:12.795Z,99.90
2018-08-30T07:26:41.722Z,99.90
2018-08-30T07:29:11.204Z,99.90
2018-08-30T07:31:40.350Z,99.90
2018-08-30T07:34:09.143Z,99.90
2018-08-30T07:36:37.803Z,99.90
2018-08-30T07:39:08.720Z,99.90
2018-08-30T07:41:37.185Z,99.90
2018-08-30T07:44:06.240Z,99.90
2018-08-30T07:46:35.782Z,99.90
2018-08-30T07:49:11.251Z,99.90
2018-08-30T07:54:21.202Z,99.90
2018-08-30T07:56:50.322Z,99.90
2018-08-30T07:59:19.758Z,99.90
2018-08-30T08:01:49.913Z,99.90
2018-08-30T08:04:19.977Z,99.90
2018-08-30T08:06:50.483Z,99.90
2018-08-30T08:11:55.086Z,99.90
2018-08-30T08:14:23.744Z,99.90
2018-08-30T08:16:53.100Z,99.90
2018-08-30T08:19:21.970Z,99.90
2018-08-30T08:21:50.425Z,99.90
2018-08-30T08:24:18.893Z,99.90
2018-08-30T08:26:47.654Z,99.90
2018-08-30T08:29:16.154Z,99.90
2018-08-30T08:31:44.610Z,99.90
2018-08-30T08:34:13.073Z,99.90
2018-08-30T08:36:41.573Z,99.90
2018-08-30T08:39:10.721Z,99.90
2018-08-30T08:41:39.529Z,99.90
2018-08-30T08:44:09.308Z,99.90
2018-08-30T08:46:38.113Z,99.90
2018-08-30T08:49:06.577Z,99.90
2018-08-30T08:51:35.427Z,99.90
2018-08-30T08:54:04.229Z,99.90
2018-08-30T08:56:33.355Z,99.90
2018-08-30T08:59:02.304Z,99.90
2018-08-30T09:01:31.218Z,99.90
2018-08-30T09:04:00.157Z,99.90
2018-08-30T09:06:29.332Z,99.90
2018-08-30T09:08:58.151Z,99.90
2018-08-30T09:11:26.625Z,99.90
2018-08-30T09:13:55.745Z,99.90
2018-08-30T09:16:24.884Z,99.90
2018-08-30T09:18:53.697Z,99.90
2018-08-30T09:21:22.153Z,99.90
2018-08-30T09:23:50.931Z,99.90
2018-08-30T09:26:19.737Z,99.90
2018-08-30T09:28:48.858Z,99.90
2018-08-30T09:31:17.981Z,99.90
2018-08-30T09:33:47.620Z,99.90
2018-08-30T09:36:16.606Z,99.90
2018-08-30T09:38:45.075Z,99.90
2018-08-30T09:41:13.525Z,99.90
2018-08-30T09:43:42.026Z,99.90
2018-08-30T09:46:10.627Z,99.90
2018-08-30T09:48:39.062Z,99.90
2018-08-30T09:51:07.580Z,99.90
2018-08-30T09:53:36.050Z,99.90
2018-08-30T09:56:04.516Z,99.90
2018-08-30T09:58:32.985Z,99.90
2018-08-30T10:01:06.805Z,99.90
2018-08-30T10:03:35.277Z,99.90
2018-08-30T10:06:04.041Z,99.90
2018-08-30T10:08:33.198Z,99.90
2018-08-30T10:11:02.282Z,99.90
2018-08-30T10:13:31.040Z,99.90
2018-08-30T10:16:00.250Z,99.90
2018-08-30T10:18:28.841Z,99.90
2018-08-30T10:20:57.350Z,99.90
2018-08-30T10:23:25.827Z,99.90
2018-08-30T10:25:54.680Z,99.90
2018-08-30T10:28:23.624Z,99.90
2018-08-30T10:30:52.949Z,99.90
2018-08-30T10:33:21.778Z,99.90
2018-08-30T10:35:50.566Z,99.90
2018-08-30T10:38:20.353Z,99.90
2018-08-30T10:40:49.147Z,99.90
2018-08-30T10:43:17.926Z,99.90
2018-08-30T10:45:46.756Z,99.90
2018-08-30T10:48:15.547Z,99.90
2018-08-30T10:50:44.800Z,99.90
2018-08-30T10:53:13.933Z,99.90
2018-08-30T10:55:42.746Z,99.90
2018-08-30T10:58:11.562Z,99.90
2018-08-30T11:00:40.027Z,99.90
2018-08-30T11:03:08.510Z,99.90
2018-08-30T11:05:37.296Z,99.90
2018-08-30T11:08:05.795Z,99.90
2018-08-30T11:10:35.097Z,99.90
2018-08-30T11:13:03.692Z,99.90
2018-08-30T11:15:33.128Z,99.90
2018-08-30T11:18:01.593Z,99.90
2018-08-30T11:20:30.049Z,99.90
2018-08-30T11:22:58.832Z,99.90
2018-08-30T11:25:28.206Z,99.90
2018-08-30T11:27:57.672Z,99.90
2018-08-30T11:30:26.139Z,99.90
2018-08-30T11:32:55.669Z,99.90
2018-08-30T11:35:24.809Z,99.90
2018-08-30T11:37:54.399Z,99.90
2018-08-30T11:40:22.925Z,99.90
2018-08-30T11:42:51.710Z,99.90
2018-08-30T11:45:21.534Z,99.90
2018-08-30T11:47:49.982Z,99.90
2018-08-30T11:50:19.125Z,99.90
2018-08-30T11:52:47.687Z,99.90
2018-08-30T11:55:16.925Z,99.90
2018-08-30T11:57:45.736Z,99.90
2018-08-30T12:00:15.024Z,99.90
2018-08-30T12:02:44.396Z,99.90
2018-08-30T12:05:13.369Z,99.90
2018-08-30T12:07:42.364Z,99.90
2018-08-30T12:10:10.922Z,99.90
2018-08-30T12:12:39.874Z,99.90
2018-08-30T12:15:08.348Z,99.90
2018-08-30T12:17:37.231Z,99.90
2018-08-30T12:20:06.654Z,99.90
2018-08-30T12:23:59.973Z,99.90
2018-08-30T12:26:29.095Z,99.90
2018-08-30T12:28:57.579Z,99.90
2018-08-30T12:31:27.105Z,99.90
2018-08-30T12:33:56.506Z,99.90
2018-08-30T12:36:25.231Z,99.90
2018-08-30T12:38:53.825Z,99.90
2018-08-30T12:41:22.465Z,99.90
2018-08-30T12:43:51.183Z,99.90
2018-08-30T12:46:20.172Z,99.90
2018-08-30T12:50:13.783Z,99.90
2018-08-30T12:52:43.008Z,99.90
2018-08-30T12:55:12.464Z,99.90
2018-08-30T12:57:41.122Z,99.90
2018-08-30T13:00:10.397Z,99.90
2018-08-30T13:02:39.057Z,99.90
2018-08-30T13:05:07.747Z,99.90
2018-08-30T13:07:36.854Z,99.90
2018-08-30T13:10:05.582Z,99.90
2018-08-30T13:12:34.456Z,99.90
2018-08-30T13:15:03.385Z,99.90
2018-08-30T13:17:32.027Z,99.90
2018-08-30T13:20:01.190Z,99.90
2018-08-30T13:22:29.895Z,99.90
2018-08-30T13:24:59.003Z,99.90
2018-08-30T13:27:28.752Z,99.90
2018-08-30T13:29:57.508Z,99.90
2018-08-30T13:32:26.426Z,99.90
2018-08-30T13:34:56.103Z,99.90
2018-08-30T13:37:25.066Z,99.90
2018-08-30T13:39:54.089Z,99.90
2018-08-30T13:42:22.737Z,99.90
2018-08-30T13:44:51.723Z,99.90
2018-08-30T13:47:20.750Z,99.90
2018-08-30T13:49:49.914Z,99.90
2018-08-30T13:52:18.676Z,99.90
2018-08-30T13:54:47.379Z,99.90
2018-08-30T13:57:18.932Z,99.90
2018-08-30T13:59:47.671Z,99.90
2018-08-30T14:02:16.211Z,99.90
2018-08-30T14:04:44.715Z,99.90
2018-08-30T14:07:13.408Z,99.90
2018-08-30T14:09:42.514Z,99.90
2018-08-30T14:12:11.334Z,99.90
2018-08-30T14:14:39.636Z,99.90
2018-08-30T14:17:08.427Z,99.90
2018-08-30T14:19:36.887Z,99.90
2018-08-30T14:22:05.995Z,99.90
2018-08-30T14:24:34.821Z,99.90
2018-08-30T14:27:04.020Z,99.90
2018-08-30T14:29:32.966Z,99.90
2018-08-30T14:32:02.078Z,99.90
2018-08-30T14:34:30.870Z,99.90
2018-08-30T14:36:59.716Z,99.90
2018-08-30T14:39:28.326Z,99.90
2018-08-30T14:41:57.142Z,99.90
2018-08-30T14:44:25.632Z,99.90
2018-08-30T14:46:54.593Z,99.90
2018-08-30T14:49:23.806Z,99.90
2018-08-30T14:51:52.284Z,99.90
2018-08-30T14:54:20.771Z,99.90
2018-08-30T14:56:49.893Z,99.90
2018-08-30T14:59:20.973Z,99.90
2018-08-30T15:02:52.667Z,99.90
2018-08-30T15:05:26.427Z,99.90
2018-08-30T15:07:57.182Z,99.90
2018-08-30T15:10:26.313Z,99.90
2018-08-30T15:12:55.349Z,99.90
2018-08-30T15:15:25.567Z,99.90
2018-08-30T15:17:54.250Z,99.90
2018-08-30T15:20:24.537Z,99.90
2018-08-30T15:22:54.765Z,99.90
2018-08-30T15:25:23.312Z,99.90
2018-08-30T15:27:55.220Z,99.90
2018-08-30T15:30:29.992Z,99.90
2018-08-30T15:33:02.065Z,99.90
2018-08-30T15:35:32.165Z,99.90
2018-08-30T15:38:02.021Z,99.90
2018-08-30T15:40:31.010Z,99.90
2018-08-30T15:42:59.442Z,99.90
2018-08-30T15:45:30.185Z,99.90
2018-08-30T15:47:59.942Z,99.90
2018-08-30T15:50:31.670Z,99.90
2018-08-30T15:53:00.746Z,99.90
2018-08-30T15:55:35.830Z,99.90
2018-08-30T15:58:05.618Z,99.90
2018-08-30T16:00:35.690Z,99.90
2018-08-30T16:03:07.013Z,99.90
2018-08-30T16:05:37.226Z,99.90
2018-08-30T16:08:07.843Z,99.90
2018-08-30T16:10:37.437Z,99.90
2018-08-30T16:13:07.292Z,99.90
2018-08-30T16:18:11.875Z,99.90
2018-08-30T16:20:41.467Z,99.90
2018-08-30T16:23:17.328Z,99.90
2018-08-30T16:25:49.095Z,99.90
2018-08-30T16:28:18.277Z,99.90
2018-08-30T16:30:48.283Z,99.90
2018-08-30T16:33:19.443Z,99.90
2018-08-30T16:35:52.909Z,99.90
2018-08-30T16:38:21.721Z,99.90
2018-08-30T16:40:50.529Z,99.90
2018-08-30T16:43:21.385Z,99.90
2018-08-30T16:45:50.902Z,99.90
2018-08-30T16:48:21.366Z,99.90
2018-08-30T16:50:51.118Z,99.90
2018-08-30T16:53:20.788Z,99.90
2018-08-30T16:55:50.779Z,99.90
2018-08-30T16:58:20.809Z,99.90
2018-08-30T17:00:49.478Z,99.90
2018-08-30T17:03:18.159Z,99.90
2018-08-30T17:05:47.603Z,99.90
2018-08-30T17:21:51.227Z,99.90
2018-08-30T17:24:20.705Z,99.90
2018-08-30T17:26:49.529Z,99.90
2018-08-30T17:29:18.553Z,99.90
2018-08-30T17:31:47.611Z,99.90
2018-08-30T17:34:16.445Z,99.90
2018-08-30T17:36:46.595Z,99.90
2018-08-30T17:39:15.169Z,99.90
2018-08-30T17:41:52.655Z,99.90
2018-08-30T17:44:22.929Z,99.90
2018-08-30T17:46:51.793Z,99.90
2018-08-30T17:49:23.834Z,99.90
2018-08-30T17:51:53.446Z,99.90
2018-08-30T17:54:27.749Z,99.90
2018-08-30T17:56:56.806Z,99.90
2018-08-30T17:59:26.014Z,99.90
2018-08-30T18:01:55.760Z,99.90
2018-08-30T18:04:24.815Z,99.90
2018-08-30T18:07:02.870Z,99.90
2018-08-30T18:09:32.911Z,99.90
2018-08-30T18:12:03.606Z,99.90
2018-08-30T18:14:33.504Z,99.90
2018-08-30T18:17:02.666Z,99.90
2018-08-30T18:19:31.280Z,99.90
2018-08-30T18:22:06.880Z,99.90
2018-08-30T18:24:36.348Z,99.90
2018-08-30T18:27:06.053Z,99.90
2018-08-30T18:29:52.136Z,99.90
2018-08-30T18:32:22.916Z,99.90
2018-08-30T18:34:53.205Z,99.90
2018-08-30T18:37:23.362Z,99.90
2018-08-30T18:39:54.007Z,99.90
2018-08-30T18:42:29.176Z,99.90
2018-08-30T18:45:06.681Z,99.90
2018-08-30T18:47:38.889Z,99.90
2018-08-30T18:50:09.572Z,99.90
2018-08-30T18:52:38.922Z,99.90
2018-08-30T18:55:08.478Z,99.90
2018-08-30T18:57:43.182Z,99.90
2018-08-30T19:00:12.872Z,99.90
2018-08-30T19:02:46.587Z,99.90
2018-08-30T19:05:26.724Z,99.90
2018-08-30T19:07:55.674Z,99.90
2018-08-30T19:10:39.015Z,99.90
2018-08-30T19:15:54.671Z,99.90
2018-08-30T19:18:28.640Z,99.90
2018-08-30T19:20:58.484Z,99.90
2018-08-30T19:26:07.619Z,99.90
2018-08-30T19:28:41.727Z,99.90
2018-08-30T19:31:10.727Z,99.90
2018-08-30T19:33:40.102Z,99.90
2018-08-30T19:36:14.911Z,99.90
2018-08-30T19:38:44.202Z,99.90
2018-08-30T19:41:19.461Z,99.90
2018-08-30T19:43:54.164Z,99.90
2018-08-30T19:46:23.809Z,99.90
2018-08-30T19:48:55.159Z,99.90
2018-08-30T19:51:23.741Z,99.90
2018-08-30T19:53:53.725Z,99.90
2018-08-30T19:56:22.736Z,99.90
2018-08-30T19:58:51.601Z,99.90
2018-08-30T20:01:21.421Z,99.90
2018-08-30T20:03:50.482Z,99.90
2018-08-30T20:06:27.339Z,99.90
2018-08-30T20:08:56.863Z,99.90
2018-08-30T20:11:25.437Z,99.90
2018-08-30T20:13:56.057Z,99.90
2018-08-30T20:16:27.744Z,99.90
2018-08-30T20:19:01.377Z,99.90
2018-08-30T20:21:31.946Z,99.90
2018-08-30T20:24:06.067Z,99.90
2018-08-30T20:26:36.453Z,99.90
2018-08-30T20:29:05.719Z,99.90
2018-08-30T20:31:38.468Z,99.90
2018-08-30T20:34:08.630Z,99.90
2018-08-30T20:36:39.545Z,99.90
2018-08-30T20:39:09.844Z,99.90
2018-08-30T20:41:43.862Z,99.90
2018-08-30T20:44:13.678Z,99.90
2018-08-30T20:46:42.460Z,99.90
2018-08-30T20:49:15.028Z,99.90
2018-08-30T20:51:46.082Z,99.90
2018-08-30T20:54:17.614Z,99.90
2018-08-30T20:56:49.393Z,99.90
2018-08-30T20:59:18.820Z,99.90
2018-08-30T21:01:47.918Z,99.90
2018-08-30T21:04:33.398Z,99.90
2018-08-30T21:07:03.088Z,99.90
2018-08-30T21:14:23.665Z,99.90
2018-08-30T21:16:52.541Z,99.90
2018-08-30T21:19:21.332Z,99.90
2018-08-30T21:25:05.148Z,99.90
2018-08-30T21:27:41.184Z,99.90
2018-08-30T21:30:10.108Z,99.90
2018-08-30T21:32:42.896Z,99.90
2018-08-30T21:35:11.401Z,99.90
2018-08-30T21:37:40.208Z,99.90
2018-08-30T21:40:09.053Z,99.90
2018-08-30T21:42:37.892Z,99.90
2018-08-30T21:45:06.345Z,99.90
2018-08-30T21:47:35.488Z,99.90
2018-08-30T21:50:03.950Z,99.90
2018-08-30T21:52:33.358Z,99.90
2018-08-30T21:55:05.571Z,99.90
2018-08-30T21:57:34.130Z,99.90
2018-08-30T22:00:03.844Z,99.90
2018-08-30T22:02:32.282Z,99.90
2018-08-30T22:05:00.897Z,99.90
2018-08-30T22:07:29.388Z,99.90
2018-08-30T22:09:58.180Z,99.90
2018-08-30T22:12:26.968Z,99.90
2018-08-30T22:14:55.796Z,99.90
2018-08-30T22:17:24.573Z,99.90
2018-08-30T22:19:53.040Z,99.90
2018-08-30T22:22:21.848Z,99.90
2018-08-30T22:24:50.957Z,99.90
2018-08-30T22:27:20.080Z,99.90
2018-08-30T22:31:13.335Z,99.90
2018-08-30T22:33:41.841Z,99.90
2018-08-30T22:36:10.290Z,99.90
2018-08-30T22:38:39.081Z,99.90
2018-08-30T22:41:07.622Z,99.90
2018-08-30T22:43:36.080Z,99.90
2018-08-30T22:46:04.592Z,99.90
2018-08-30T22:48:33.405Z,99.90
2018-08-30T22:51:01.874Z,99.90
2018-08-30T22:53:30.325Z,99.90
2018-08-30T22:58:33.013Z,99.90
2018-08-30T23:01:01.466Z,99.90
2018-08-30T23:03:29.944Z,99.90
2018-08-30T23:05:58.438Z,99.90
2018-08-30T23:08:27.238Z,99.90
2018-08-30T23:10:56.026Z,99.90
2018-08-30T23:13:25.097Z,99.90
2018-08-30T23:15:54.272Z,99.90
2018-08-30T23:18:23.447Z,99.90
2018-08-30T23:20:52.242Z,99.90
2018-08-30T23:23:21.861Z,99.90
2018-08-30T23:25:50.709Z,99.90
2018-08-30T23:28:19.521Z,99.90
2018-08-30T23:30:47.979Z,99.90
2018-08-30T23:33:16.787Z,99.90
2018-08-30T23:35:51.967Z,99.90
2018-08-30T23:38:20.724Z,99.90
2018-08-30T23:40:49.260Z,99.90
2018-08-30T23:43:19.377Z,99.90
2018-08-30T23:45:47.849Z,99.90
2018-08-30T23:48:16.320Z,99.90
2018-08-30T23:50:44.769Z,99.90
2018-08-30T23:53:14.299Z,99.90
2018-08-30T23:55:43.116Z,99.90
2018-08-30T23:58:23.136Z,99.90
